METAR Data
IDs: Format: Raw Decoded Include TAF

Data at: 1050 UTC 23 Jun 2021

METAR for:LFAQ (Albert/Picardie Arpt, HD, FR)
Text:LFAQ 231030Z AUTO 02011KT 9999 SCT023 OVC038 15/11 Q1021 NOSIG
Temperature: 15.0°C ( 59°F)
Dewpoint: 11.0°C ( 52°F) [RH = 77%]
Pressure (altimeter):30.15 inches Hg (1021.0 mb)
Winds:from the NNE (20 degrees) at 13 MPH (11 knots; 5.7 m/s)
Visibility:6 or more sm (10+ km)
Ceiling:3800 feet AGL
Clouds: scattered clouds at 2300 feet AGL, overcast cloud deck at 3800 feet AGL

TAF for:LFAQ (Albert/Picardie Arpt, HD, FR) issued at 0800 UTC 23 Jun 2021
Text:TAF LFAQ 230800Z 2309/2318 03012KT 9999 BKN013
Forecast period:0900 to 1800 UTC 23 June 2021
Forecast type:FROM: standard forecast or significant change
Winds:from the NNE (30 degrees) at 14 MPH (12 knots; 6.2 m/s)
Visibility:6 or more sm (10+ km)
Ceiling:1300 feet AGL
Clouds: broken clouds at 1300 feet AGL
Text:BECMG 2309/2310 BKN017
Forecast period:0900 to 1800 UTC 23 June 2021
Forecast type:BECOMING: Conditions expected to become as follows by 1000 UTC 23 June 2021
Winds:from the NNE (30 degrees) at 14 MPH (12 knots; 6.2 m/s)
Visibility:6 or more sm (10+ km)
Ceiling:1700 feet AGL
Clouds: broken clouds at 1700 feet AGL